Aérodrome :
LOGIN :

S'inscrire | Disclaimer

   EN    FR    IT 

 










Légende :    VFR   VFR Marginal   IFR   IFR Intensif   IFR Très Intensif
Visi : 
Plafond : 
>= 8 km
>= 3000ft
5 à 8 km
1000 à 3000 ft
1500m à 5 km
500 à 1000 ft
800 à 1500m
200 à 500 ft
< 800m
< 200 ft
Symboles :   Orages  Brouillard  Fortes neiges  Fortes précipitations  Vent > 20 kt
SIGMETs :   Divers  Orages  Givrage  Turbulence  Onde Orograph.  Cendres Volcan.







- Altitude de l'aérodrome : 162 ft
- Code IATA : BOD
- Voir les cartes d'approche


LFBD - Bordeaux / Merignac

DERNIER METAR :
  • 232230Z AUTO 19005KT 7000 -RA ///CB 11/10 Q0997 TEMPO 2500 RA BKN010

METARs EXPIRÉS :
  • 232200Z AUTO 21004KT 8000 RA SCT045/// OVC064/// ///CB 11/10 Q0997 TEMPO 2500 RA BKN010
  • 232130Z AUTO 24007KT 210V280 9999 RA BKN038/// OVC066/// ///TCU 11/10 Q0997 TEMPO 2500 RA BKN010
  • 232100Z AUTO 28008KT 7000 RA FEW045/// OVC068/// ///TCU 11/10 Q0996 TEMPO 2500 RA BKN010
  • 232030Z AUTO 27008KT 8000 RA ///TCU 11/10 Q0996 TEMPO 2500 RA BKN010
  • 232000Z AUTO 27014KT 8000 RA FEW010/// OVC072/// ///CB 11/10 Q0996 TEMPO 2500 RA BKN010

TAF AMD TAF LFBD
Valide du 23 à 19h jusqu'au 25 à 00h UTC


231918Z 2319/2424 29006KT 7000 -RA BKN030 SCT040 TX18/2414Z TN10/2404Z
PROB40 2319/2320 VRB15G25KT 2500 TSRA BKN008 BKN060CB
TEMPO 2320/2404 2500 RA BKN010
BECMG 2405/2407 18010KT 9999 NSW SCT025
PROB30 2413/2424 18015G30KT 3000 SHRA BKN040TCU FEW050CB
ATIS : +33 5 57 92 81 04
Pas de NOTAMs connus pour ce terrain.
2 SIGMETs publiés pour la FIR Bordeaux (LFBB) :
 
Orages noyés dans la masse
LFBB SIGMET 9 VALID 232100/232300 LFPW
LFBB BORDEAUX FIR/UIR EMBD TS FCST WI N4300 W00015 - N4615 W00030 - N4700 E00000 - N4315 E00115 - N4300 W00015 TOP FL360 MOV NE 15KT WKN=
Turbulence forte
LFBB SIGMET 8 VALID 232100/232300 LFPW
LFBB BORDEAUX FIR/UIR SEV TURB FCST WI N4545 E00300 - N4330 E00245 - N4315 E00215 - N4545 E00230 - N4545 E00300 SFC/FL070 STNR INTSF=



MET'MAP, la Météo Aéronautique d'un coup d'oeil ! - Copyright ORBIFLY Décembre 2007 - Disclaimer

ORBIFLY MET'MAP TEAM :

Programmation & Développement : Alexandra Zaïnal
Conception & Développement : Baudouin d'Aumeries
Co-Programmation & Développement : Marc-Olivier Méhu
Soutien technique & logistique : Manuel Goepfert

Contact : metmap@orbifly.com




SOURCES & CREDITS :

   NOAA